createdAt,value
2018-03-28T00:00:36.927Z,5.30
2018-03-28T00:03:05.882Z,5.30
2018-03-28T00:05:33.420Z,5.30
2018-03-28T00:08:00.951Z,5.30
2018-03-28T00:10:28.512Z,5.30
2018-03-28T00:12:56.804Z,5.20
2018-03-28T00:15:24.349Z,5.20
2018-03-28T00:17:51.915Z,5.10
2018-03-28T00:20:20.235Z,5.10
2018-03-28T00:22:49.791Z,5.00
2018-03-28T00:25:18.608Z,4.90
2018-03-28T00:27:46.145Z,4.90
2018-03-28T00:30:24.721Z,4.90
2018-03-28T00:34:50.700Z,4.70
2018-03-28T00:37:18.270Z,4.70
2018-03-28T00:39:45.803Z,4.70
2018-03-28T00:42:25.943Z,4.50
2018-03-28T00:44:53.448Z,4.50
2018-03-28T00:47:21.019Z,4.40
2018-03-28T00:49:48.591Z,4.50
2018-03-28T00:52:16.497Z,4.50
2018-03-28T00:54:44.052Z,4.50
2018-03-28T00:57:11.628Z,4.50
2018-03-28T00:59:39.172Z,4.50
2018-03-28T01:02:06.711Z,4.50
2018-03-28T01:04:34.771Z,4.60
2018-03-28T01:07:02.308Z,4.70
2018-03-28T01:09:29.843Z,4.60
2018-03-28T01:11:57.405Z,4.60
2018-03-28T01:14:25.179Z,4.60
2018-03-28T01:16:52.716Z,4.70
2018-03-28T01:19:21.041Z,4.80
2018-03-28T01:21:48.575Z,4.80
2018-03-28T01:24:16.510Z,4.80
2018-03-28T01:26:44.408Z,4.70
2018-03-28T01:29:11.966Z,4.70
2018-03-28T01:31:39.509Z,4.70
2018-03-28T01:34:07.090Z,4.60
2018-03-28T01:36:34.623Z,4.60
2018-03-28T01:39:02.167Z,4.60
2018-03-28T01:41:29.736Z,4.60
2018-03-28T01:43:57.274Z,4.60
2018-03-28T01:46:24.821Z,4.60
2018-03-28T01:48:52.728Z,4.50
2018-03-28T01:51:20.259Z,4.50
2018-03-28T01:53:47.795Z,4.50
2018-03-28T01:56:16.292Z,4.40
2018-03-28T01:58:43.837Z,4.40
2018-03-28T02:01:11.376Z,4.40
2018-03-28T02:03:38.943Z,4.40
2018-03-28T02:06:06.483Z,4.40
2018-03-28T02:08:34.898Z,4.50
2018-03-28T02:11:02.793Z,4.50
2018-03-28T02:13:30.331Z,4.50
2018-03-28T02:15:58.025Z,4.50
2018-03-28T02:18:25.607Z,4.50
2018-03-28T02:20:53.908Z,4.50
2018-03-28T02:23:21.449Z,4.50
2018-03-28T02:25:49.024Z,4.50
2018-03-28T02:28:16.564Z,4.60
2018-03-28T02:30:44.105Z,4.60
2018-03-28T02:33:11.984Z,4.50
2018-03-28T02:35:39.519Z,4.50
2018-03-28T02:38:07.051Z,4.50
2018-03-28T02:40:34.618Z,4.40
2018-03-28T02:43:02.156Z,4.40
2018-03-28T02:45:29.696Z,4.40
2018-03-28T02:47:57.255Z,4.40
2018-03-28T02:50:25.568Z,4.40
2018-03-28T02:52:53.123Z,4.40
2018-03-28T02:55:21.135Z,4.40
2018-03-28T02:57:48.676Z,4.40
2018-03-28T03:00:16.563Z,4.40
2018-03-28T03:02:44.136Z,4.50
2018-03-28T03:05:11.676Z,4.40
2018-03-28T03:07:39.242Z,4.40
2018-03-28T03:10:06.803Z,4.40
2018-03-28T03:12:34.338Z,4.50
2018-03-28T03:15:01.874Z,4.50
2018-03-28T03:17:30.648Z,4.50
2018-03-28T03:19:58.200Z,4.40
2018-03-28T03:22:26.503Z,4.30
2018-03-28T03:24:54.087Z,4.30
2018-03-28T03:27:21.611Z,4.40
2018-03-28T03:29:49.144Z,4.50
2018-03-28T03:32:17.467Z,4.60
2018-03-28T03:34:44.996Z,4.60
2018-03-28T03:37:12.535Z,4.50
2018-03-28T03:39:40.176Z,4.50
2018-03-28T03:42:07.723Z,4.50
2018-03-28T03:44:35.256Z,4.60
2018-03-28T03:47:02.813Z,4.60
2018-03-28T03:49:30.440Z,4.70
2018-03-28T03:51:58.751Z,4.60
2018-03-28T03:54:26.316Z,4.60
2018-03-28T03:56:53.851Z,4.60
2018-03-28T03:59:21.395Z,4.60
2018-03-28T04:01:49.640Z,4.60
2018-03-28T04:04:17.184Z,4.60
2018-03-28T04:06:44.719Z,4.60
2018-03-28T04:09:12.294Z,4.70
2018-03-28T04:11:39.840Z,4.70
2018-03-28T04:14:07.383Z,4.80
2018-03-28T04:16:35.711Z,4.90
2018-03-28T04:19:03.969Z,4.80
2018-03-28T04:21:31.512Z,4.90
2018-03-28T04:23:59.414Z,5.00
2018-03-28T04:26:26.954Z,5.00
2018-03-28T04:28:54.500Z,5.10
2018-03-28T04:31:22.071Z,5.10
2018-03-28T04:33:49.607Z,5.20
2018-03-28T04:36:17.903Z,5.40
2018-03-28T04:38:45.476Z,5.40
2018-03-28T04:41:15.392Z,5.40
2018-03-28T04:43:42.964Z,5.40
2018-03-28T04:46:11.451Z,5.50
2018-03-28T04:48:38.992Z,5.50
2018-03-28T04:51:06.532Z,5.60
2018-03-28T04:53:34.099Z,5.60
2018-03-28T04:56:01.632Z,5.70
2018-03-28T04:58:29.943Z,5.70
2018-03-28T05:00:57.499Z,5.70
2018-03-28T05:03:25.028Z,5.70
2018-03-28T05:05:52.795Z,5.70
2018-03-28T05:08:20.681Z,5.70
2018-03-28T05:10:48.220Z,5.70
2018-03-28T05:13:16.468Z,5.80
2018-03-28T05:15:44.035Z,5.70
2018-03-28T05:18:11.580Z,5.70
2018-03-28T05:20:39.119Z,5.70
2018-03-28T05:23:06.679Z,5.80
2018-03-28T05:25:34.992Z,5.80
2018-03-28T05:28:02.526Z,5.80
2018-03-28T05:30:30.156Z,5.90
2018-03-28T05:32:57.696Z,5.90
2018-03-28T05:35:25.230Z,6.00
2018-03-28T05:37:52.800Z,6.00
2018-03-28T05:40:20.327Z,6.00
2018-03-28T05:42:47.889Z,6.00
2018-03-28T05:45:16.520Z,6.10
2018-03-28T05:47:44.068Z,6.10
2018-03-28T05:50:11.599Z,6.10
2018-03-28T05:52:39.191Z,6.20
2018-03-28T05:55:06.724Z,6.20
2018-03-28T05:57:34.256Z,6.20
2018-03-28T06:00:01.853Z,6.30
2018-03-28T06:02:29.412Z,6.30
2018-03-28T06:04:56.946Z,6.40
2018-03-28T06:07:24.531Z,6.60
2018-03-28T06:09:52.064Z,6.70
2018-03-28T06:12:19.648Z,6.80
2018-03-28T06:14:47.248Z,6.90
2018-03-28T06:17:16.426Z,6.90
2018-03-28T06:19:43.964Z,7.00
2018-03-28T06:22:11.709Z,7.10
2018-03-28T06:24:39.260Z,7.10
2018-03-28T06:27:06.793Z,7.20
2018-03-28T06:29:34.356Z,7.20
2018-03-28T06:32:01.901Z,7.20
2018-03-28T06:34:30.205Z,7.30
2018-03-28T06:36:58.420Z,7.30
2018-03-28T06:39:25.970Z,7.50
2018-03-28T06:41:53.504Z,7.60
2018-03-28T06:44:21.077Z,7.60
2018-03-28T06:46:48.611Z,7.60
2018-03-28T06:49:16.420Z,7.50
2018-03-28T06:51:43.997Z,7.60
2018-03-28T06:54:12.195Z,7.60
2018-03-28T06:56:40.780Z,7.80
2018-03-28T06:59:09.530Z,7.90
2018-03-28T07:01:37.063Z,7.80
2018-03-28T07:04:04.588Z,7.90
2018-03-28T07:06:32.918Z,8.10
2018-03-28T07:09:01.220Z,8.10
2018-03-28T07:11:28.763Z,8.10
2018-03-28T07:13:56.342Z,8.20
2018-03-28T07:16:23.875Z,8.30
2018-03-28T07:18:51.427Z,8.40
2018-03-28T07:21:19.405Z,8.40
2018-03-28T07:23:47.356Z,8.50
2018-03-28T07:26:16.480Z,8.60
2018-03-28T07:28:44.040Z,8.60
2018-03-28T07:31:11.581Z,8.60
2018-03-28T07:33:39.116Z,8.80
2018-03-28T07:36:07.115Z,8.70
2018-03-28T07:38:35.600Z,8.60
2018-03-28T07:41:03.149Z,8.60
2018-03-28T07:43:31.216Z,8.70
2018-03-28T07:45:58.760Z,8.80
2018-03-28T07:48:26.297Z,8.80
2018-03-28T07:50:53.885Z,8.80
2018-03-28T07:53:21.484Z,8.80
2018-03-28T07:55:49.028Z,8.90
2018-03-28T07:58:16.589Z,9.10
2018-03-28T08:00:44.123Z,9.00
2018-03-28T08:03:11.664Z,9.10
2018-03-28T08:05:40.096Z,9.60
2018-03-28T08:08:07.698Z,9.50
2018-03-28T08:10:35.211Z,9.70
2018-03-28T08:13:02.778Z,9.90
2018-03-28T08:15:32.654Z,10.40
2018-03-28T08:18:00.985Z,11.40
2018-03-28T08:20:28.576Z,11.40
2018-03-28T08:22:56.155Z,11.30
2018-03-28T08:25:23.820Z,11.40
2018-03-28T08:27:51.823Z,11.50
2018-03-28T08:30:19.372Z,11.90
2018-03-28T08:32:48.075Z,12.00
2018-03-28T08:35:17.247Z,12.70
2018-03-28T08:37:44.915Z,12.60
2018-03-28T08:40:12.485Z,13.50
2018-03-28T08:42:40.055Z,13.00
2018-03-28T08:45:09.978Z,13.10
2018-03-28T08:47:37.757Z,13.20
2018-03-28T08:50:06.213Z,12.90
2018-03-28T08:52:33.826Z,12.50
2018-03-28T08:55:01.393Z,12.20
2018-03-28T08:57:28.969Z,11.90
2018-03-28T08:59:56.516Z,11.60
2018-03-28T09:02:24.168Z,11.20
2018-03-28T09:04:51.744Z,11.00
2018-03-28T09:07:19.281Z,11.00
2018-03-28T09:09:46.912Z,11.00
2018-03-28T09:12:27.177Z,10.90
2018-03-28T09:19:44.350Z,12.20
2018-03-28T09:22:12.636Z,13.60
2018-03-28T09:24:40.973Z,14.60
2018-03-28T09:27:11.427Z,14.60
2018-03-28T09:29:39.742Z,14.50
2018-03-28T09:32:07.652Z,14.50
2018-03-28T09:34:35.263Z,15.60
2018-03-28T09:37:02.866Z,15.80
2018-03-28T09:39:30.437Z,16.80
2018-03-28T09:41:58.036Z,17.60
2018-03-28T09:44:26.180Z,17.50
2018-03-28T09:46:53.780Z,16.80
2018-03-28T09:49:21.348Z,15.90
2018-03-28T09:51:49.798Z,15.10
2018-03-28T09:54:17.380Z,14.10
2018-03-28T09:56:45.560Z,13.80
2018-03-28T09:59:29.489Z,13.40
2018-03-28T10:05:28.656Z,12.80
2018-03-28T10:07:57.472Z,11.90
2018-03-28T10:10:25.064Z,11.70
2018-03-28T10:12:53.487Z,11.40
2018-03-28T10:15:21.033Z,11.40
2018-03-28T10:17:48.580Z,11.40
2018-03-28T10:20:16.525Z,11.50
2018-03-28T10:22:44.065Z,11.50
2018-03-28T10:25:12.363Z,11.70
2018-03-28T10:27:40.355Z,11.70
2018-03-28T10:30:07.910Z,11.80
2018-03-28T10:32:35.548Z,11.90
2018-03-28T10:35:05.588Z,11.80
2018-03-28T10:37:33.137Z,11.60
2018-03-28T10:40:00.725Z,11.60
2018-03-28T10:42:28.295Z,11.90
2018-03-28T10:44:55.902Z,12.20
2018-03-28T10:47:23.666Z,12.50
2018-03-28T10:49:51.253Z,12.60
2018-03-28T10:52:18.788Z,12.60
2018-03-28T10:54:47.165Z,12.30
2018-03-28T10:57:16.624Z,12.30
2018-03-28T10:59:44.241Z,12.20
2018-03-28T11:02:11.792Z,12.30
2018-03-28T11:04:40.992Z,11.90
2018-03-28T11:07:09.393Z,12.10
2018-03-28T11:09:37.026Z,12.10
2018-03-28T11:12:05.380Z,12.20
2018-03-28T11:14:32.928Z,12.10
2018-03-28T11:17:00.525Z,12.50
2018-03-28T11:19:28.754Z,12.80
2018-03-28T11:21:56.638Z,13.10
2018-03-28T11:24:27.909Z,13.20
2018-03-28T11:26:56.284Z,13.10
2018-03-28T11:29:27.413Z,13.10
2018-03-28T11:31:55.751Z,13.20
2018-03-28T11:34:23.378Z,13.20
2018-03-28T11:36:51.237Z,13.40
2018-03-28T11:39:18.778Z,13.30
2018-03-28T11:41:47.905Z,13.20
2018-03-28T11:44:15.618Z,13.10
2018-03-28T11:46:43.155Z,12.90
2018-03-28T11:49:10.724Z,12.70
2018-03-28T11:51:39.028Z,12.40
2018-03-28T11:54:06.565Z,12.40
2018-03-28T11:56:34.152Z,12.40
2018-03-28T11:59:01.928Z,12.10
2018-03-28T12:01:29.473Z,12.10
2018-03-28T12:03:57.639Z,12.00
2018-03-28T12:06:25.178Z,12.10
2018-03-28T12:08:52.707Z,12.30
2018-03-28T12:11:21.026Z,12.30
2018-03-28T12:13:48.565Z,12.30
2018-03-28T12:16:16.708Z,12.40
2018-03-28T12:18:45.600Z,12.50
2018-03-28T12:21:25.703Z,12.40
2018-03-28T12:26:23.934Z,12.30
2018-03-28T12:28:51.467Z,12.20
2018-03-28T12:31:20.512Z,11.80
2018-03-28T12:33:48.562Z,11.80
2018-03-28T12:36:17.284Z,11.40
2018-03-28T12:38:44.835Z,11.40
2018-03-28T12:41:12.404Z,11.50
2018-03-28T12:43:40.024Z,11.40
2018-03-28T12:46:07.630Z,11.40
2018-03-28T12:48:38.603Z,11.60
2018-03-28T12:51:06.181Z,11.80
2018-03-28T12:53:33.714Z,12.10
2018-03-28T12:56:01.292Z,12.40
2018-03-28T12:58:28.833Z,12.60
2018-03-28T13:00:56.368Z,12.90
2018-03-28T13:03:24.645Z,12.80
2018-03-28T13:05:55.308Z,12.70
2018-03-28T13:08:22.928Z,12.50
2018-03-28T13:10:53.830Z,12.40
2018-03-28T13:13:22.363Z,12.50
2018-03-28T13:15:49.906Z,12.80
2018-03-28T13:18:18.280Z,13.10
2018-03-28T13:20:45.816Z,13.10
2018-03-28T13:23:25.163Z,13.10
2018-03-28T13:27:01.452Z,13.10
2018-03-28T13:29:29.363Z,13.00
2018-03-28T13:31:57.493Z,13.00
2018-03-28T13:34:25.445Z,12.90
2018-03-28T13:36:53.162Z,12.80
2018-03-28T13:39:20.740Z,12.70
2018-03-28T13:41:49.256Z,12.50
2018-03-28T13:44:23.239Z,12.30
2018-03-28T13:46:51.689Z,12.10
2018-03-28T13:49:19.468Z,12.10
2018-03-28T13:51:50.425Z,12.00
2018-03-28T13:56:52.833Z,12.00
2018-03-28T13:59:23.414Z,12.20
2018-03-28T14:01:53.028Z,12.40
2018-03-28T14:04:20.596Z,12.40
2018-03-28T14:06:48.250Z,12.20
2018-03-28T14:09:16.834Z,12.10
2018-03-28T14:11:44.491Z,12.30
2018-03-28T14:14:13.751Z,12.20
2018-03-28T14:16:41.363Z,12.20
2018-03-28T14:19:12.483Z,12.20
2018-03-28T14:21:40.170Z,12.30
2018-03-28T14:24:07.756Z,12.20
2018-03-28T14:26:38.280Z,12.40
2018-03-28T14:29:06.084Z,12.40
2018-03-28T14:34:12.344Z,12.50
2018-03-28T14:36:39.964Z,12.70
2018-03-28T14:39:07.518Z,12.90
2018-03-28T14:41:35.127Z,13.00
2018-03-28T14:44:02.720Z,13.10
2018-03-28T14:46:30.258Z,12.90
2018-03-28T14:48:58.054Z,12.70
2018-03-28T14:51:25.937Z,12.60
2018-03-28T14:53:53.480Z,12.50
2018-03-28T14:56:21.026Z,12.60
2018-03-28T14:58:48.612Z,12.50
2018-03-28T15:01:16.616Z,12.50
2018-03-28T15:03:44.160Z,12.40
2018-03-28T15:06:11.785Z,12.40
2018-03-28T15:08:39.343Z,12.30
2018-03-28T15:11:06.890Z,12.30
2018-03-28T15:13:35.317Z,12.40
2018-03-28T15:16:06.090Z,12.40
2018-03-28T15:18:33.781Z,12.20
2018-03-28T15:21:01.367Z,12.20
2018-03-28T15:23:28.904Z,12.20
2018-03-28T15:25:56.444Z,12.20
2018-03-28T15:28:24.039Z,12.20
2018-03-28T15:30:51.605Z,12.30
2018-03-28T15:33:19.192Z,12.20
2018-03-28T15:35:51.254Z,12.10
2018-03-28T15:38:19.211Z,12.20
2018-03-28T15:40:46.750Z,12.00
2018-03-28T15:43:16.452Z,11.90
2018-03-28T15:45:44.012Z,11.90
2018-03-28T15:48:11.563Z,12.00
2018-03-28T15:50:39.144Z,12.00
2018-03-28T15:53:06.708Z,11.90
2018-03-28T15:55:34.248Z,11.80
2018-03-28T15:58:02.364Z,11.70
2018-03-28T16:00:31.104Z,11.60
2018-03-28T16:02:59.125Z,11.40
2018-03-28T16:05:26.723Z,11.30
2018-03-28T16:07:56.305Z,11.00
2018-03-28T16:10:23.854Z,10.90
2018-03-28T16:12:51.445Z,10.90
2018-03-28T16:15:19.778Z,10.80
2018-03-28T16:17:47.351Z,10.80
2018-03-28T16:20:18.079Z,10.60
2018-03-28T16:22:45.621Z,10.60
2018-03-28T16:25:25.117Z,10.50
2018-03-28T16:30:22.087Z,10.50
2018-03-28T16:32:50.425Z,10.40
2018-03-28T16:35:18.899Z,10.40
2018-03-28T16:37:47.133Z,10.30
2018-03-28T16:40:16.443Z,10.40
2018-03-28T16:42:44.009Z,10.40
2018-03-28T16:45:11.554Z,10.40
2018-03-28T16:47:39.158Z,10.30
2018-03-28T16:50:06.698Z,10.40
2018-03-28T16:52:34.267Z,10.40
2018-03-28T16:55:01.852Z,10.40
2018-03-28T16:57:29.406Z,10.40
2018-03-28T16:59:56.954Z,10.40
2018-03-28T17:02:24.904Z,10.50
2018-03-28T17:04:52.515Z,10.50
2018-03-28T17:07:20.908Z,10.50
2018-03-28T17:09:48.461Z,10.50
2018-03-28T17:12:16.416Z,10.50
2018-03-28T17:14:43.997Z,10.50
2018-03-28T17:17:11.569Z,10.50
2018-03-28T17:19:39.125Z,10.50
2018-03-28T17:22:07.446Z,10.50
2018-03-28T17:24:35.552Z,10.50
2018-03-28T17:27:03.246Z,10.50
2018-03-28T17:29:30.892Z,10.50
2018-03-28T17:31:58.561Z,10.50
2018-03-28T17:34:26.170Z,10.40
2018-03-28T17:36:53.717Z,10.40
2018-03-28T17:39:22.822Z,10.30
2018-03-28T17:41:50.400Z,10.30
2018-03-28T17:44:17.945Z,10.30
2018-03-28T17:46:45.892Z,10.20
2018-03-28T17:49:25.385Z,10.00
2018-03-28T17:58:38.039Z,10.00
2018-03-28T18:01:06.708Z,9.60
2018-03-28T18:03:34.272Z,9.60
2018-03-28T18:06:01.972Z,9.50
2018-03-28T18:08:29.691Z,9.50
2018-03-28T18:10:57.372Z,9.60
2018-03-28T18:13:24.974Z,9.50
2018-03-28T18:15:53.285Z,9.50
2018-03-28T18:18:21.455Z,9.40
2018-03-28T18:20:49.033Z,9.30
2018-03-28T18:23:16.568Z,9.30
2018-03-28T18:25:46.184Z,9.30
2018-03-28T18:28:16.367Z,9.20
2018-03-28T18:30:43.914Z,9.20
2018-03-28T18:33:11.494Z,9.20
2018-03-28T18:35:40.074Z,9.20
2018-03-28T18:38:08.275Z,9.20
2018-03-28T18:40:36.626Z,9.20
2018-03-28T18:43:04.287Z,9.20
2018-03-28T18:45:31.935Z,9.20
2018-03-28T18:47:59.476Z,9.20
2018-03-28T18:50:27.887Z,9.10
2018-03-28T18:52:56.723Z,9.10
2018-03-28T18:55:24.279Z,9.10
2018-03-28T18:57:51.910Z,9.10
2018-03-28T19:00:19.607Z,9.10
2018-03-28T19:02:47.264Z,9.10
2018-03-28T19:05:16.128Z,9.10
2018-03-28T19:07:43.759Z,9.10
2018-03-28T19:10:11.324Z,9.00
2018-03-28T19:12:38.937Z,9.10
2018-03-28T19:15:06.570Z,9.10
2018-03-28T19:17:34.876Z,9.00
2018-03-28T19:20:03.220Z,9.10
2018-03-28T19:22:30.793Z,9.00
2018-03-28T19:24:58.341Z,9.00
2018-03-28T19:27:27.099Z,9.00
2018-03-28T19:29:54.655Z,9.10
2018-03-28T19:32:22.947Z,9.00
2018-03-28T19:34:50.700Z,9.00
2018-03-28T19:37:18.232Z,9.00
2018-03-28T19:39:45.767Z,9.00
2018-03-28T19:42:25.684Z,9.00
2018-03-28T19:48:45.655Z,9.00
2018-03-28T19:51:15.316Z,8.90
2018-03-28T19:53:43.507Z,8.90
2018-03-28T19:56:11.976Z,8.90
2018-03-28T19:58:40.321Z,8.90
2018-03-28T20:01:10.409Z,8.90
2018-03-28T20:03:38.810Z,8.90
2018-03-28T20:06:08.377Z,8.90
2018-03-28T20:08:35.960Z,8.90
2018-03-28T20:11:03.544Z,9.00
2018-03-28T20:13:31.117Z,8.90
2018-03-28T20:15:59.432Z,8.90
2018-03-28T20:18:27.327Z,8.80
2018-03-28T20:20:54.852Z,8.90
2018-03-28T20:23:22.452Z,8.90
2018-03-28T20:25:50.086Z,8.90
2018-03-28T20:28:17.682Z,8.90
2018-03-28T20:30:45.220Z,9.00
2018-03-28T20:33:14.510Z,9.00
2018-03-28T20:35:42.064Z,8.90
2018-03-28T20:38:09.647Z,9.00
2018-03-28T20:40:37.780Z,8.90
2018-03-28T20:43:06.827Z,9.00
2018-03-28T20:45:34.368Z,8.90
2018-03-28T20:48:02.033Z,8.90
2018-03-28T20:50:29.572Z,8.90
2018-03-28T20:52:57.100Z,8.90
2018-03-28T20:55:24.655Z,8.90
2018-03-28T20:57:52.293Z,8.80
2018-03-28T21:00:19.848Z,8.90
2018-03-28T21:02:47.455Z,8.90
2018-03-28T21:05:16.624Z,8.90
2018-03-28T21:07:44.232Z,8.80
2018-03-28T21:10:12.120Z,8.80
2018-03-28T21:12:39.660Z,8.80
2018-03-28T21:15:07.220Z,8.80
2018-03-28T21:17:34.890Z,8.80
2018-03-28T21:20:02.468Z,8.80
2018-03-28T21:22:30.122Z,8.80
2018-03-28T21:24:58.488Z,8.80
2018-03-28T21:27:26.102Z,8.80
2018-03-28T21:29:53.751Z,8.90
2018-03-28T21:32:21.348Z,8.90
2018-03-28T21:34:48.889Z,8.90
2018-03-28T21:37:16.430Z,9.00
2018-03-28T21:39:43.983Z,9.00
2018-03-28T21:42:11.527Z,9.00
2018-03-28T21:44:39.565Z,9.00
2018-03-28T21:47:07.716Z,9.00
2018-03-28T21:49:35.256Z,9.00
2018-03-28T21:52:02.788Z,9.00
2018-03-28T21:54:30.352Z,9.10
2018-03-28T21:56:57.948Z,9.10
2018-03-28T21:59:25.553Z,9.10
2018-03-28T22:01:53.151Z,9.10
2018-03-28T22:04:20.685Z,9.10
2018-03-28T22:06:48.249Z,9.00
2018-03-28T22:09:16.676Z,9.00
2018-03-28T22:11:44.210Z,9.00
2018-03-28T22:14:11.740Z,9.00
2018-03-28T22:16:39.300Z,9.00
2018-03-28T22:19:06.835Z,9.00
2018-03-28T22:21:34.372Z,9.00
2018-03-28T22:24:01.930Z,9.00
2018-03-28T22:26:29.500Z,9.00
2018-03-28T22:28:57.806Z,8.90
2018-03-28T22:31:25.851Z,8.90
2018-03-28T22:33:53.453Z,9.00
2018-03-28T22:36:20.983Z,9.00
2018-03-28T22:38:48.555Z,9.00
2018-03-28T22:41:16.469Z,9.00
2018-03-28T22:43:44.003Z,9.00
2018-03-28T22:46:12.272Z,9.00
2018-03-28T22:48:39.872Z,9.00
2018-03-28T22:51:07.407Z,9.00
2018-03-28T22:53:35.563Z,9.00
2018-03-28T22:56:03.090Z,9.00
2018-03-28T22:58:30.620Z,8.90
2018-03-28T23:00:58.183Z,9.00
2018-03-28T23:03:25.744Z,9.00
2018-03-28T23:05:53.276Z,8.90
2018-03-28T23:08:20.895Z,8.90
2018-03-28T23:10:49.205Z,8.90
2018-03-28T23:13:16.736Z,8.90
2018-03-28T23:15:45.788Z,8.90
2018-03-28T23:18:23.564Z,8.90
2018-03-28T23:25:22.455Z,8.80
2018-03-28T23:27:49.987Z,8.80
2018-03-28T23:30:17.523Z,8.80
2018-03-28T23:32:45.709Z,8.80
2018-03-28T23:35:15.473Z,8.80
2018-03-28T23:37:43.007Z,8.80
2018-03-28T23:40:11.334Z,8.80
2018-03-28T23:42:38.936Z,8.80
2018-03-28T23:45:06.564Z,8.80
2018-03-28T23:47:34.128Z,8.80
2018-03-28T23:50:01.673Z,8.70
2018-03-28T23:52:29.248Z,8.80
2018-03-28T23:54:57.143Z,8.80
2018-03-28T23:57:24.692Z,8.70
2018-03-28T23:59:52.223Z,8.70
